Time;durP1;ratioP1;P1;durP2;ratioP2;P2;SDS_P1;SDS_P2;PMS_P1;PMS_P2;Temp;Humidity;BMP_temperature;BMP_pressure;BME280_temperature;BME280_humidity;BME280_pressure;Samples;Min_cycle;Max_cycle;Signal;HPM_P1;HPM_P2
2021/08/11 00:02:21;;;;;;;17.17;14.73;;;;;;;21.75;82.43;100222.86;1721841;82;20895;-74
2021/08/11 00:04:48;;;;;;;19.67;14.35;;;;;;;21.75;82.52;100220.20;1721939;82;21381;-73
2021/08/11 00:07:16;;;;;;;17.37;14.03;;;;;;;21.73;82.40;100226.52;1721906;82;20962;-74
2021/08/11 00:09:43;;;;;;;16.57;13.75;;;;;;;21.72;82.32;100230.69;1721906;82;20923;-74
2021/08/11 00:12:10;;;;;;;15.83;14.18;;;;;;;21.70;82.19;100226.06;1722071;83;21453;-73
2021/08/11 00:14:38;;;;;;;16.20;14.45;;;;;;;21.67;82.14;100229.88;1721745;82;20943;-74
2021/08/11 00:17:05;;;;;;;18.70;13.30;;;;;;;21.67;82.02;100233.89;1721771;82;20934;-73
2021/08/11 00:19:34;;;;;;;19.35;15.03;;;;;;;21.67;82.01;100226.39;1721942;82;20919;-73
2021/08/11 00:22:00;;;;;;;14.78;12.58;;;;;;;21.66;82.09;100210.06;1722291;82;20896;-72
2021/08/11 00:24:27;;;;;;;15.95;14.20;;;;;;;21.65;82.10;100203.87;1721877;82;21924;-72
2021/08/11 00:26:54;;;;;;;16.02;14.38;;;;;;;21.65;82.12;100207.05;1721936;83;20961;-73
2021/08/11 00:29:21;;;;;;;15.72;13.80;;;;;;;21.64;81.97;100199.55;1721996;82;20868;-74
2021/08/11 00:31:49;;;;;;;15.93;14.00;;;;;;;21.63;81.80;100204.57;1721851;82;20943;-73
2021/08/11 00:34:17;;;;;;;18.77;13.93;;;;;;;21.62;81.63;100211.41;1721931;82;21006;-73
2021/08/11 00:36:44;;;;;;;17.50;13.20;;;;;;;21.59;81.52;100211.26;1721889;82;21106;-74
2021/08/11 00:39:11;;;;;;;15.43;13.68;;;;;;;21.60;81.43;100213.42;1721683;82;21430;-74
2021/08/11 00:41:44;;;;;;;16.87;13.68;;;;;;;21.58;81.10;100212.25;1721786;82;20991;-74
2021/08/11 00:44:12;;;;;;;18.37;14.03;;;;;;;21.57;81.03;100211.94;1722338;83;20872;-74
2021/08/11 00:46:42;;;;;;;14.75;13.35;;;;;;;21.57;81.01;100224.45;1721770;83;21010;-73
2021/08/11 00:49:12;;;;;;;19.12;12.68;;;;;;;21.53;81.03;100224.78;1721951;82;21126;-74
2021/08/11 00:51:42;;;;;;;15.78;12.93;;;;;;;21.51;81.08;100212.62;1721678;82;20859;-74
2021/08/11 00:54:10;;;;;;;16.40;13.30;;;;;;;21.48;81.22;100227.14;1722111;82;20908;-73
2021/08/11 00:56:41;;;;;;;14.35;12.10;;;;;;;21.46;81.10;100221.14;1721806;82;21456;-74
2021/08/11 00:59:08;;;;;;;17.65;12.88;;;;;;;21.45;80.83;100222.64;1695211;82;20994;-74
2021/08/11 01:01:38;;;;;;;14.30;11.63;;;;;;;21.43;80.52;100221.50;1721892;82;21821;-74
2021/08/11 01:04:05;;;;;;;15.25;11.20;;;;;;;21.41;80.31;100224.84;1721619;83;20923;-74
2021/08/11 01:06:34;;;;;;;13.20;11.12;;;;;;;21.38;80.09;100227.80;1721760;82;20896;-74
2021/08/11 01:09:01;;;;;;;14.93;12.00;;;;;;;21.35;80.15;100218.82;1695815;83;21442;-74
2021/08/11 01:11:30;;;;;;;14.35;12.60;;;;;;;21.32;79.94;100225.34;1721785;82;21455;-74
2021/08/11 01:13:58;;;;;;;15.88;12.47;;;;;;;21.30;79.94;100222.01;1721899;82;21141;-74
2021/08/11 01:16:26;;;;;;;13.25;11.53;;;;;;;21.28;80.00;100220.52;1721691;82;21512;-73
2021/08/11 01:18:53;;;;;;;12.88;11.60;;;;;;;21.24;79.61;100216.02;1721727;82;20884;-74
2021/08/11 01:21:34;;;;;;;14.07;11.25;;;;;;;21.22;78.79;100212.69;1721825;82;20971;-74
2021/08/11 01:24:38;;;;;;;13.70;12.28;;;;;;;21.21;78.84;100212.84;1722055;82;20907;-73
2021/08/11 01:27:22;;;;;;;11.68;10.58;;;;;;;21.19;79.14;100212.19;1687260;83;21097;-74
2021/08/11 01:30:09;;;;;;;12.40;10.70;;;;;;;21.16;78.95;100202.70;1696102;84;20913;-72
2021/08/11 01:32:57;;;;;;;13.32;11.90;;;;;;;21.14;78.95;100205.21;1696037;83;21034;-73
2021/08/11 01:35:28;;;;;;;12.50;11.35;;;;;;;21.10;79.18;100210.90;1696088;84;20932;-73
2021/08/11 01:37:56;;;;;;;16.20;11.63;;;;;;;21.04;79.29;100215.57;1696246;84;21043;-74
2021/08/11 01:40:27;;;;;;;16.60;11.38;;;;;;;21.00;79.42;100213.42;1696475;84;21095;-73
2021/08/11 01:42:54;;;;;;;16.55;12.30;;;;;;;20.98;79.56;100227.41;1695912;84;20936;-73
2021/08/11 01:45:25;;;;;;;16.20;12.30;;;;;;;20.93;79.62;100227.92;1696465;84;21441;-73
2021/08/11 01:48:08;;;;;;;14.13;11.60;;;;;;;20.88;80.07;100224.44;1695611;84;20972;-72
2021/08/11 01:50:40;;;;;;;14.55;11.73;;;;;;;20.84;80.57;100216.44;1696025;84;21003;-73
2021/08/11 01:53:11;;;;;;;12.73;10.25;;;;;;;20.83;80.59;100215.27;1696202;84;21162;-73
2021/08/11 01:55:38;;;;;;;13.35;10.15;;;;;;;20.81;80.46;100211.45;1696266;84;21418;-73
2021/08/11 01:58:05;;;;;;;13.35;10.45;;;;;;;20.80;80.20;100211.61;1696110;84;21082;-74
2021/08/11 02:00:32;;;;;;;12.75;10.35;;;;;;;20.79;80.01;100208.63;1696416;84;20885;-74
2021/08/11 02:02:59;;;;;;;11.28;10.18;;;;;;;20.79;79.74;100213.45;1696065;84;20951;-72
2021/08/11 02:05:31;;;;;;;15.53;10.60;;;;;;;20.78;79.50;100211.77;1696152;84;21566;-73
2021/08/11 02:08:02;;;;;;;10.40;9.33;;;;;;;20.77;79.11;100218.12;1695260;84;20948;-73
2021/08/11 02:10:29;;;;;;;15.25;9.83;;;;;;;20.76;79.20;100212.95;1667207;84;21016;-73
2021/08/11 02:12:58;;;;;;;15.08;8.85;;;;;;;20.75;78.98;100213.96;1696071;84;20944;-74
2021/08/11 02:15:26;;;;;;;10.55;9.35;;;;;;;20.76;78.85;100216.44;1644997;84;21328;-73
2021/08/11 02:17:53;;;;;;;14.45;8.23;;;;;;;20.76;78.44;100214.28;1696124;83;21145;-73
2021/08/11 02:20:22;;;;;;;10.48;8.18;;;;;;;20.75;78.12;100212.12;1696381;83;21425;-73
2021/08/11 02:22:50;;;;;;;14.40;8.60;;;;;;;20.75;78.25;100214.79;1696032;84;21355;-74
2021/08/11 02:25:17;;;;;;;11.65;8.40;;;;;;;20.74;77.80;100213.11;1696435;84;20967;-73
2021/08/11 02:27:58;;;;;;;8.58;7.12;;;;;;;20.73;77.57;100217.30;1698233;83;20951;-72
2021/08/11 02:30:30;;;;;;;11.08;8.18;;;;;;;20.70;77.29;100218.47;1710463;82;21324;-74
2021/08/11 02:33:18;;;;;;;9.95;7.40;;;;;;;20.65;77.37;100215.45;1701737;84;20951;-72
2021/08/11 02:35:55;;;;;;;14.03;8.25;;;;;;;20.60;77.23;100217.29;1650573;85;20917;-72
2021/08/11 02:38:25;;;;;;;14.68;7.95;;;;;;;20.58;77.32;100225.94;1681321;84;21022;-73
2021/08/11 02:41:07;;;;;;;9.83;6.92;;;;;;;20.58;77.08;100233.94;1701733;84;21422;-73
2021/08/11 02:43:55;;;;;;;11.68;7.45;;;;;;;20.59;76.94;100232.12;1711548;83;21204;-72
2021/08/11 02:46:24;;;;;;;11.33;7.60;;;;;;;20.58;76.78;100219.80;1682938;83;20951;-73
2021/08/11 02:48:59;;;;;;;8.70;7.80;;;;;;;20.56;76.65;100220.42;1701776;84;20884;-73
2021/08/11 02:51:30;;;;;;;13.43;7.58;;;;;;;20.55;76.84;100223.59;1711275;82;20884;-73
2021/08/11 02:54:03;;;;;;;8.20;7.00;;;;;;;20.56;76.83;100221.75;1682792;84;20907;-73
2021/08/11 02:56:33;;;;;;;15.60;8.13;;;;;;;20.55;76.81;100215.60;1702023;84;21106;-73
2021/08/11 02:59:02;;;;;;;11.70;8.30;;;;;;;20.56;76.46;100219.92;1711369;82;20880;-74
2021/08/11 03:01:31;;;;;;;10.00;8.38;;;;;;;20.55;76.60;100216.94;1682799;84;21445;-74
2021/08/11 03:03:59;;;;;;;9.03;8.00;;;;;;;20.57;76.74;100212.81;1701755;84;20999;-74
2021/08/11 03:06:26;;;;;;;10.35;8.15;;;;;;;20.58;76.65;100218.45;1711586;82;21468;-74
2021/08/11 03:08:55;;;;;;;14.10;9.28;;;;;;;20.57;76.72;100217.63;1682940;84;20899;-74
2021/08/11 03:11:22;;;;;;;9.65;8.73;;;;;;;20.57;77.08;100218.14;1701654;83;20968;-73
2021/08/11 03:13:51;;;;;;;11.60;8.13;;;;;;;20.57;77.26;100223.47;1681415;85;21445;-73
2021/08/11 03:16:17;;;;;;;14.18;7.80;;;;;;;20.57;77.39;100216.81;1701962;84;20956;-73
2021/08/11 03:18:52;;;;;;;11.15;8.60;;;;;;;20.56;77.47;100221.25;1681378;84;21027;-73
2021/08/11 03:21:20;;;;;;;9.23;7.70;;;;;;;20.56;77.76;100221.75;1702083;84;21811;-74
2021/08/11 03:23:47;;;;;;;9.68;8.18;;;;;;;20.56;77.69;100227.91;1681328;85;20947;-77
2021/08/11 03:26:15;;;;;;;10.15;8.23;;;;;;;20.56;77.99;100220.42;1702050;84;20932;-73
2021/08/11 03:28:43;;;;;;;12.37;9.13;;;;;;;20.58;77.94;100220.61;1704823;83;20908;-74
2021/08/11 03:31:10;;;;;;;10.75;8.93;;;;;;;20.62;77.60;100221.95;1672765;84;20918;-74
2021/08/11 03:33:38;;;;;;;17.37;9.98;;;;;;;;;;1736114;82;21616;-74
2021/08/11 03:36:05;;;;;;;12.82;8.80;;;;;;;20.73;77.52;100218.62;1736158;82;20932;-73
2021/08/11 03:38:34;;;;;;;18.48;9.40;;;;;;;20.78;77.51;100226.43;1736306;81;20889;-73
2021/08/11 03:41:01;;;;;;;11.15;8.20;;;;;;;20.83;77.49;100217.45;1736409;82;20921;-74
2021/08/11 03:43:28;;;;;;;15.78;8.25;;;;;;;20.87;77.29;100214.75;1736334;81;21359;-73
2021/08/11 03:45:56;;;;;;;14.18;8.68;;;;;;;20.92;77.22;100216.95;1736300;82;21000;-75
2021/08/11 03:48:27;;;;;;;12.30;8.28;;;;;;;20.97;77.21;100213.27;1736074;82;20909;-73
2021/08/11 03:50:54;;;;;;;14.50;8.63;;;;;;;21.03;77.26;100210.40;1736565;81;21388;-72
2021/08/11 03:53:21;;;;;;;12.03;9.13;;;;;;;21.08;77.01;100211.56;1736101;81;20893;-73
2021/08/11 03:55:48;;;;;;;15.10;8.98;;;;;;;21.15;76.74;100210.38;1736097;81;21473;-73
2021/08/11 03:58:15;;;;;;;11.50;8.93;;;;;;;21.22;76.38;100219.86;1736094;82;21123;-74
2021/08/11 04:00:44;;;;;;;20.05;8.68;;;;;;;21.28;76.37;100216.52;1736135;82;20893;-73
2021/08/11 04:03:10;;;;;;;12.20;7.85;;;;;;;21.34;76.08;100206.47;1736184;82;20966;-74
2021/08/11 04:05:37;;;;;;;17.67;8.53;;;;;;;21.43;75.63;100204.16;1736338;82;21070;-74
2021/08/11 04:08:04;;;;;;;14.38;8.38;;;;;;;21.50;75.36;100194.96;1736267;82;20878;-73
2021/08/11 04:10:31;;;;;;;13.25;8.38;;;;;;;21.58;75.03;100195.41;1736030;82;21561;-73
2021/08/11 04:12:57;;;;;;;10.80;7.55;;;;;;;21.65;74.68;100198.53;1736049;82;21379;-74
2021/08/11 04:15:24;;;;;;;13.28;8.40;;;;;;;21.77;74.38;100202.17;1736453;82;21397;-73
2021/08/11 04:17:50;;;;;;;9.75;7.22;;;;;;;21.87;74.05;100203.59;1736185;82;20921;-74
2021/08/11 04:20:19;;;;;;;14.80;8.03;;;;;;;22.03;73.56;100205.35;1736328;82;21007;-73
2021/08/11 04:22:45;;;;;;;11.78;7.33;;;;;;;22.23;73.07;100204.89;1736367;82;21789;-74
2021/08/11 04:25:13;;;;;;;10.25;7.75;;;;;;;22.48;72.33;100208.22;1736071;82;20849;-73
2021/08/11 04:27:39;;;;;;;15.13;8.05;;;;;;;22.72;71.42;100213.83;1736533;81;20976;-74
2021/08/11 04:30:08;;;;;;;11.53;7.65;;;;;;;22.94;70.61;100210.30;1750031;80;20963;-73
2021/08/11 04:32:39;;;;;;;17.57;7.37;;;;;;;23.12;69.53;100209.97;1750170;82;20884;-73
2021/08/11 04:35:08;;;;;;;12.05;7.42;;;;;;;23.24;69.01;100206.32;1749076;82;21538;-74
2021/08/11 04:37:38;;;;;;;12.07;7.85;;;;;;;23.34;68.55;100207.37;1749988;82;20923;-74
2021/08/11 04:40:06;;;;;;;8.63;7.47;;;;;;;23.40;67.71;100213.84;1750133;82;21315;-73
2021/08/11 04:42:33;;;;;;;7.10;6.37;;;;;;;23.40;66.88;100220.02;1750396;82;20857;-73
2021/08/11 04:45:01;;;;;;;12.35;6.50;;;;;;;23.42;66.91;100224.67;1750276;82;21409;-74
2021/08/11 04:47:28;;;;;;;8.90;6.80;;;;;;;23.48;66.60;100223.11;1750368;80;21100;-74
2021/08/11 04:49:54;;;;;;;10.38;6.58;;;;;;;23.56;66.87;100226.49;1750127;80;20869;-74
2021/08/11 04:52:21;;;;;;;10.75;7.03;;;;;;;23.67;66.73;100229.72;1750363;82;20920;-74
2021/08/11 04:54:47;;;;;;;9.50;6.60;;;;;;;23.73;66.22;100231.66;1750166;82;20853;-74
2021/08/11 04:57:14;;;;;;;11.90;6.70;;;;;;;23.79;66.07;100226.92;1750344;82;20865;-75
2021/08/11 04:59:40;;;;;;;11.60;5.92;;;;;;;23.91;66.08;100221.38;1750126;82;21515;-74
2021/08/11 05:02:07;;;;;;;8.88;5.62;;;;;;;24.13;65.83;100223.58;1750376;82;20971;-74
2021/08/11 05:04:33;;;;;;;7.65;6.03;;;;;;;24.45;65.30;100216.56;1750304;82;20889;-74
2021/08/11 05:07:08;;;;;;;8.90;6.20;;;;;;;24.83;64.38;100213.07;1750333;82;20975;-73
2021/08/11 05:09:35;;;;;;;8.30;5.28;;;;;;;25.30;63.42;100202.66;1750142;81;20928;-73
2021/08/11 05:12:02;;;;;;;9.23;5.55;;;;;;;25.91;61.59;100202.73;1750332;80;21104;-73
2021/08/11 05:14:29;;;;;;;8.35;5.05;;;;;;;26.46;60.11;100200.73;1750041;82;20932;-74
2021/08/11 05:16:56;;;;;;;8.28;5.33;;;;;;;26.91;58.58;100197.95;1750334;82;20928;-73
2021/08/11 05:19:22;;;;;;;11.20;5.08;;;;;;;27.24;57.62;100197.38;1750128;82;20939;-74
2021/08/11 05:21:49;;;;;;;6.67;4.87;;;;;;;27.51;56.54;100201.84;1750432;82;20904;-74
2021/08/11 05:24:16;;;;;;;9.48;5.97;;;;;;;27.60;55.67;100191.13;1750167;82;21086;-74
2021/08/11 05:26:45;;;;;;;9.23;4.92;;;;;;;27.55;55.20;100191.78;1750291;80;20991;-75
2021/08/11 05:29:22;;;;;;;10.08;5.03;;;;;;;27.40;55.44;100195.25;1742398;81;21553;-74
2021/08/11 05:31:49;;;;;;;9.75;5.12;;;;;;;27.17;55.88;100190.31;1736344;81;20972;-74
2021/08/11 05:34:15;;;;;;;6.30;4.90;;;;;;;26.92;55.74;100196.37;1736184;82;20917;-75
2021/08/11 05:36:42;;;;;;;7.65;5.37;;;;;;;26.69;56.35;100194.14;1736066;82;21121;-74
2021/08/11 05:39:09;;;;;;;6.30;4.85;;;;;;;26.51;56.70;100190.70;1736084;82;20972;-74
2021/08/11 05:41:35;;;;;;;6.95;4.87;;;;;;;26.36;57.33;100189.55;1736056;81;21363;-75
2021/08/11 05:44:02;;;;;;;6.50;5.00;;;;;;;26.20;57.87;100194.82;1736370;82;20932;-74
2021/08/11 05:46:28;;;;;;;9.35;5.00;;;;;;;26.05;58.46;100186.93;1736169;81;21047;-75
2021/08/11 05:48:55;;;;;;;9.58;5.00;;;;;;;25.94;59.23;100186.71;1736418;82;21502;-75
2021/08/11 05:51:22;;;;;;;6.95;5.42;;;;;;;25.81;59.57;100198.21;1736311;81;20912;-75
2021/08/11 05:53:49;;;;;;;10.20;5.72;;;;;;;25.70;59.82;100197.45;1736287;82;20905;-74
2021/08/11 05:56:15;;;;;;;8.75;5.42;;;;;;;25.65;60.36;100198.06;1736352;82;20858;-75
2021/08/11 05:58:42;;;;;;;8.38;5.22;;;;;;;25.63;59.98;100194.75;1736536;82;20921;-75
2021/08/11 06:01:08;;;;;;;5.85;5.22;;;;;;;25.62;59.62;100193.11;1736243;82;21517;-74
2021/08/11 06:03:35;;;;;;;6.37;5.37;;;;;;;25.63;59.86;100194.25;1736399;82;21347;-75
2021/08/11 06:06:05;;;;;;;5.47;4.95;;;;;;;25.62;60.13;100191.77;1735845;81;20862;-74
2021/08/11 06:08:33;;;;;;;7.75;6.20;;;;;;;25.59;60.64;100200.20;1736389;82;21410;-75
2021/08/11 06:11:00;;;;;;;6.85;4.70;;;;;;;25.59;60.55;100206.91;1736213;82;20932;-75
2021/08/11 06:13:27;;;;;;;7.10;5.50;;;;;;;25.60;60.37;100204.56;1736505;82;22177;-74
2021/08/11 06:15:54;;;;;;;6.55;5.92;;;;;;;25.61;60.46;100215.11;1736151;82;20913;-73
2021/08/11 06:18:21;;;;;;;6.20;5.70;;;;;;;25.64;60.67;100208.51;1736659;81;21348;-73
2021/08/11 06:20:52;;;;;;;7.65;5.58;;;;;;;25.66;60.82;100217.20;1736241;82;20968;-74
2021/08/11 06:23:17;;;;;;;9.35;5.12;;;;;;;25.69;61.11;100211.93;1736449;82;21478;-76
2021/08/11 06:25:43;;;;;;;8.70;5.20;;;;;;;25.71;60.98;100206.66;1736285;82;21504;-75
2021/08/11 06:28:10;;;;;;;7.47;5.17;;;;;;;25.76;60.71;100200.16;1736311;82;20929;-75
2021/08/11 06:30:37;;;;;;;7.28;5.75;;;;;;;25.77;60.90;100199.15;1736370;81;21047;-75
2021/08/11 06:33:04;;;;;;;8.93;5.55;;;;;;;25.78;61.14;100202.14;1736622;82;20886;-75
2021/08/11 06:35:31;;;;;;;11.38;5.67;;;;;;;25.80;60.90;100205.45;1736533;82;20941;-79
2021/08/11 06:37:58;;;;;;;7.95;5.33;;;;;;;25.83;60.83;100203.72;1736633;82;21433;-74
2021/08/11 06:40:24;;;;;;;6.30;5.30;;;;;;;25.86;61.00;100206.52;1736653;82;20913;-76
2021/08/11 06:42:51;;;;;;;8.30;5.40;;;;;;;25.84;61.24;100202.67;1736802;82;20909;-77
2021/08/11 06:45:20;;;;;;;7.55;5.40;;;;;;;25.87;61.24;100195.25;1736096;82;21465;-75
2021/08/11 06:47:48;;;;;;;10.80;6.17;;;;;;;25.88;61.30;100198.27;1736606;82;21477;-75
2021/08/11 06:50:15;;;;;;;10.82;6.10;;;;;;;25.88;61.22;100204.48;1736273;82;21124;-75
2021/08/11 06:52:42;;;;;;;7.00;5.53;;;;;;;25.93;60.97;100206.56;1736503;82;21359;-76
2021/08/11 06:55:16;;;;;;;7.95;5.92;;;;;;;25.97;60.99;100200.58;1736517;81;20972;-77
2021/08/11 06:57:46;;;;;;;14.40;6.47;;;;;;;25.99;60.85;100196.33;1736172;82;20999;-75
2021/08/11 07:00:12;;;;;;;9.85;6.40;;;;;;;26.07;60.99;100202.86;1715963;82;21366;-75
2021/08/11 07:02:39;;;;;;;7.50;6.42;;;;;;;26.15;60.91;100199.17;1736280;82;21477;-80
2021/08/11 07:05:07;;;;;;;9.93;6.00;;;;;;;26.19;60.36;100195.86;1739199;82;20972;-80
2021/08/11 07:07:34;;;;;;;7.58;6.72;;;;;;;26.22;60.63;100195.97;1738385;82;20905;-79
2021/08/11 07:10:01;;;;;;;9.18;6.87;;;;;;;26.29;60.56;100201.35;1737051;82;20905;-80
2021/08/11 07:12:27;;;;;;;7.33;6.62;;;;;;;26.37;59.96;100201.12;1736385;81;20983;-80
2021/08/11 07:14:54;;;;;;;9.80;6.67;;;;;;;26.46;59.72;100199.39;1736712;82;21371;-79
2021/08/11 07:17:21;;;;;;;8.60;6.62;;;;;;;26.58;59.45;100196.11;1736206;82;20960;-81
2021/08/11 07:19:48;;;;;;;8.78;7.00;;;;;;;26.70;59.25;100192.27;1736530;82;21581;-81
2021/08/11 07:22:15;;;;;;;11.40;7.20;;;;;;;26.82;58.93;100200.85;1736266;82;20877;-79
2021/08/11 07:24:43;;;;;;;11.22;7.17;;;;;;;26.96;59.46;100204.87;1736367;82;20871;-81
2021/08/11 07:27:10;;;;;;;10.03;6.83;;;;;;;27.11;58.72;100190.66;1736129;82;21141;-80
2021/08/11 07:29:37;;;;;;;10.70;7.58;;;;;;;27.29;58.00;100186.79;1742732;81;21503;-79
2021/08/11 07:32:04;;;;;;;8.98;6.45;;;;;;;27.62;57.51;100184.48;1750216;80;20873;-74
2021/08/11 07:34:31;;;;;;;10.63;6.60;;;;;;;28.09;56.56;100179.67;1750405;80;20960;-73
2021/08/11 07:36:58;;;;;;;9.58;7.25;;;;;;;28.72;55.18;100180.14;1750107;82;20979;-75
2021/08/11 07:39:25;;;;;;;9.98;7.25;;;;;;;29.26;53.68;100176.36;1750500;80;21486;-75
2021/08/11 07:41:52;;;;;;;9.85;6.20;;;;;;;29.89;52.06;100175.14;1750120;82;20876;-74
2021/08/11 07:44:20;;;;;;;11.57;6.45;;;;;;;30.38;51.17;100177.75;1750106;82;20928;-75
2021/08/11 07:46:47;;;;;;;7.12;6.00;;;;;;;30.86;50.34;100184.86;1750426;82;21517;-75
2021/08/11 07:49:13;;;;;;;8.60;6.55;;;;;;;31.39;49.54;100188.39;1750083;82;20884;-78
2021/08/11 07:51:40;;;;;;;10.68;7.00;;;;;;;31.97;47.57;100187.41;1750559;82;21620;-78
2021/08/11 07:54:07;;;;;;;11.70;5.60;;;;;;;32.50;45.67;100185.27;1750130;82;21007;-75
2021/08/11 07:56:34;;;;;;;11.45;7.28;;;;;;;32.95;45.06;100178.91;1750436;80;21404;-76
2021/08/11 07:59:00;;;;;;;6.42;5.83;;;;;;;33.30;43.93;100177.73;1750128;82;20896;-77
2021/08/11 08:01:27;;;;;;;12.65;5.85;;;;;;;33.65;42.12;100186.86;1750525;82;21453;-78
2021/08/11 08:03:54;;;;;;;9.78;5.92;;;;;;;33.87;41.86;100190.08;1749802;80;21521;-78
2021/08/11 08:06:21;;;;;;;11.57;6.20;;;;;;;34.03;41.19;100193.77;1750443;82;20932;-76
2021/08/11 08:08:48;;;;;;;10.00;5.75;;;;;;;34.20;40.84;100188.23;1750088;82;21552;-77
2021/08/11 08:11:15;;;;;;;8.73;5.55;;;;;;;34.39;41.27;100192.73;1750335;80;20885;-77
2021/08/11 08:13:45;;;;;;;13.60;6.47;;;;;;;34.65;40.37;100194.58;1750226;82;21386;-77
2021/08/11 08:16:12;;;;;;;9.28;6.15;;;;;;;34.86;39.26;100190.09;1750364;80;21500;-78
2021/08/11 08:18:39;;;;;;;12.65;5.97;;;;;;;35.08;39.77;100182.28;1750116;82;20928;-75
2021/08/11 08:21:06;;;;;;;7.00;5.42;;;;;;;35.32;39.44;100188.14;1750354;80;20873;-75
2021/08/11 08:23:33;;;;;;;14.38;6.22;;;;;;;35.49;38.82;100187.38;1750063;82;20896;-75
2021/08/11 08:26:00;;;;;;;11.10;5.65;;;;;;;35.58;38.25;100188.23;1750335;82;20952;-76
2021/08/11 08:28:26;;;;;;;6.08;5.03;;;;;;;35.73;37.63;100191.03;1750211;82;21079;-74
2021/08/11 08:30:53;;;;;;;6.53;4.92;;;;;;;35.84;37.48;100198.14;1738124;81;20897;-74
2021/08/11 08:33:20;;;;;;;6.67;5.35;;;;;;;35.86;37.59;100198.69;1735925;82;20965;-75
2021/08/11 08:35:47;;;;;;;7.97;4.80;;;;;;;35.95;37.01;100194.84;1736437;82;20952;-75
2021/08/11 08:38:14;;;;;;;5.95;5.03;;;;;;;36.16;36.75;100197.65;1736227;82;21000;-74
2021/08/11 08:40:44;;;;;;;8.95;5.97;;;;;;;36.38;36.37;100188.63;1736453;82;21094;-75
2021/08/11 08:43:09;;;;;;;7.25;4.67;;;;;;;36.57;35.83;100186.68;1736103;82;20913;-75
2021/08/11 08:45:36;;;;;;;14.18;5.10;;;;;;;36.67;35.22;100189.44;1736388;82;21007;-76
2021/08/11 08:48:04;;;;;;;8.83;4.70;;;;;;;36.70;35.00;100188.88;1736205;82;20846;-76
2021/08/11 08:50:33;;;;;;;9.65;4.95;;;;;;;36.84;35.03;100184.48;1734686;82;20937;-77
2021/08/11 08:53:01;;;;;;;6.15;4.15;;;;;;;37.01;35.08;100175.93;1736222;82;22139;-75
2021/08/11 08:55:27;;;;;;;7.45;4.22;;;;;;;37.10;34.26;100175.64;1736095;82;21007;-74
2021/08/11 08:57:54;;;;;;;8.50;4.67;;;;;;;37.28;34.33;100174.75;1736136;82;20932;-76
2021/08/11 09:00:22;;;;;;;4.97;3.77;;;;;;;37.43;34.15;100173.86;1736188;82;20964;-77
2021/08/11 09:02:49;;;;;;;8.18;4.17;;;;;;;37.58;33.35;100183.94;1736121;81;20960;-74
2021/08/11 09:05:15;;;;;;;8.00;3.85;;;;;;;37.69;33.41;100175.94;1736140;82;21525;-72
2021/08/11 09:07:47;;;;;;;7.33;4.17;;;;;;;37.73;33.07;100179.19;1736011;82;20866;-74
2021/08/11 09:10:29;;;;;;;5.87;3.83;;;;;;;37.76;33.47;100174.25;1736314;82;20892;-73
2021/08/11 09:13:06;;;;;;;8.50;3.95;;;;;;;37.72;32.93;100169.88;1736263;82;20933;-74
2021/08/11 09:15:43;;;;;;;11.70;4.50;;;;;;;37.74;33.69;100170.42;1735608;82;20944;-74
2021/08/11 09:18:19;;;;;;;6.35;4.17;;;;;;;37.74;33.71;100173.16;1736202;82;21869;-72
2021/08/11 09:21:09;;;;;;;5.62;4.53;;;;;;;37.65;33.64;100175.67;1730977;82;20850;-82
2021/08/11 09:23:39;;;;;;;8.18;4.67;;;;;;;37.53;32.98;100171.05;1736132;82;20889;-72
2021/08/11 09:26:09;;;;;;;6.97;3.30;;;;;;;37.40;33.14;100164.31;1736024;81;20996;-74
2021/08/11 09:28:42;;;;;;;4.35;3.95;;;;;;;37.28;33.99;100163.25;1736085;82;21035;-73
2021/08/11 09:31:28;;;;;;;7.42;3.80;;;;;;;37.36;34.05;100161.86;1736285;82;21076;-73
2021/08/11 09:34:00;;;;;;;6.87;3.45;;;;;;;37.52;33.76;100163.40;1736095;82;20924;-73
2021/08/11 09:36:27;;;;;;;6.92;3.25;;;;;;;37.80;32.81;100165.18;1737235;82;20912;-75
2021/08/11 09:39:02;;;;;;;3.83;3.35;;;;;;;37.78;32.35;100164.64;1736244;82;20854;-76
2021/08/11 09:41:29;;;;;;;7.42;4.50;;;;;;;37.69;33.12;100158.95;1735576;82;20895;-76
2021/08/11 09:45:02;;;;;;;7.65;3.67;;;;;;;37.63;33.63;100165.55;1797968;79;22530;-75
2021/08/11 09:47:29;;;;;;;7.17;3.70;;;;;;;37.43;32.87;100163.73;1758365;81;21473;-75
2021/08/11 09:50:08;;;;;;;6.70;3.77;;;;;;;37.17;32.82;100157.56;1758436;81;22149;-76
2021/08/11 09:52:50;;;;;;;8.03;4.03;;;;;;;37.02;33.22;100158.97;1758314;81;20928;-76
2021/08/11 09:55:17;;;;;;;5.35;3.92;;;;;;;36.87;32.86;100157.94;1758375;81;20892;-76
2021/08/11 09:57:44;;;;;;;5.65;3.33;;;;;;;36.82;33.84;100162.59;1758495;81;20896;-75
2021/08/11 10:00:15;;;;;;;8.80;3.20;;;;;;;36.86;33.36;100154.92;1758545;81;20939;-75
2021/08/11 10:02:42;;;;;;;7.42;3.85;;;;;;;36.81;33.06;100154.14;1758619;81;21538;-76
2021/08/11 10:05:12;;;;;;;11.97;3.75;;;;;;;36.54;33.51;100151.73;1758203;81;20884;-76
2021/08/11 10:07:39;;;;;;;6.50;4.22;;;;;;;36.31;34.06;100153.40;1758532;80;20908;-76
2021/08/11 10:10:07;;;;;;;6.85;3.52;;;;;;;36.10;35.13;100151.73;1764332;81;20905;-74
2021/08/11 10:12:35;;;;;;;5.97;4.40;;;;;;;35.75;35.84;100153.34;1758508;81;20936;-76
2021/08/11 10:15:04;;;;;;;8.55;3.77;;;;;;;35.37;36.67;100154.06;1758297;81;21539;-76
2021/08/11 10:17:34;;;;;;;4.97;3.40;;;;;;;35.03;37.86;100158.55;1758531;81;20963;-75
2021/08/11 10:20:08;;;;;;;5.22;3.25;;;;;;;34.72;37.78;100160.84;1758230;81;21501;-74
2021/08/11 10:22:34;;;;;;;5.95;3.55;;;;;;;34.43;38.27;100151.64;1758609;80;21382;-77
2021/08/11 10:25:01;;;;;;;5.65;3.60;;;;;;;34.16;39.42;100157.17;1758406;81;20986;-76
2021/08/11 10:27:28;;;;;;;9.68;3.90;;;;;;;33.95;40.35;100158.84;1758540;81;21800;-76
2021/08/11 10:29:56;;;;;;;7.92;3.80;;;;;;;33.72;39.39;100154.02;1758257;81;20916;-75
2021/08/11 10:32:23;;;;;;;4.08;3.25;;;;;;;33.43;40.40;100157.49;1758556;81;20884;-75
2021/08/11 10:34:55;;;;;;;6.83;3.92;;;;;;;33.21;41.39;100154.79;1708166;82;20927;-75
2021/08/11 10:37:23;;;;;;;8.13;3.80;;;;;;;32.99;41.17;100160.19;1720414;82;20935;-76
2021/08/11 10:39:51;;;;;;;5.95;3.85;;;;;;;32.83;41.80;100161.88;1724732;83;21205;-76
2021/08/11 10:42:18;;;;;;;6.42;3.80;;;;;;;32.68;40.86;100158.41;1724913;83;21006;-75
2021/08/11 10:44:45;;;;;;;6.35;3.80;;;;;;;32.51;42.13;100148.10;1712917;82;21299;-75
2021/08/11 10:47:13;;;;;;;8.15;3.72;;;;;;;32.34;42.45;100150.82;1709401;82;20968;-75
2021/08/11 10:49:58;;;;;;;7.87;4.62;;;;;;;32.19;43.08;100144.61;1709593;84;21490;-76
2021/08/11 10:52:25;;;;;;;12.63;4.53;;;;;;;32.03;43.38;100146.80;1709817;83;21156;-78
2021/08/11 10:54:59;;;;;;;10.58;4.62;;;;;;;31.85;43.81;100145.91;1709411;84;20932;-76
2021/08/11 10:57:41;;;;;;;8.28;4.25;;;;;;;31.71;44.65;100149.47;1708762;82;20888;-72
2021/08/11 11:00:28;;;;;;;7.15;4.47;;;;;;;31.57;45.24;100144.04;1709023;84;20904;-72
2021/08/11 11:02:55;;;;;;;5.83;4.45;;;;;;;31.42;44.83;100147.30;1744030;81;20905;-71
2021/08/11 11:05:28;;;;;;;9.83;3.70;;;;;;;31.27;45.96;100142.91;1744959;82;21554;-72
2021/08/11 11:08:16;;;;;;;8.03;4.25;;;;;;;31.14;46.36;100141.28;1744834;81;20869;-71
2021/08/11 11:10:45;;;;;;;7.50;4.42;;;;;;;31.05;45.96;100142.72;1744569;82;20881;-71
2021/08/11 11:13:31;;;;;;;6.30;4.08;;;;;;;30.97;45.94;100140.69;1744413;82;21469;-73
2021/08/11 11:15:58;;;;;;;8.70;5.00;;;;;;;30.92;46.95;100139.20;1744859;82;20889;-71
2021/08/11 11:18:25;;;;;;;10.20;4.08;;;;;;;30.88;46.33;100137.20;1744547;80;22260;-72
2021/08/11 11:21:01;;;;;;;6.45;4.78;;;;;;;30.80;46.27;100134.86;1745016;82;21027;-72
2021/08/11 11:23:39;;;;;;;12.55;3.67;;;;;;;30.82;46.59;100141.67;1744576;80;20889;-72
2021/08/11 11:26:14;;;;;;;14.40;4.67;;;;;;;30.92;45.64;100127.02;1744951;82;21086;-72
2021/08/11 11:29:02;;;;;;;8.60;3.80;;;;;;;30.94;45.86;100127.60;1744695;81;20881;-73
2021/08/11 11:31:34;;;;;;;;;;;;;;;30.97;45.49;100131.20;1747496;82;21515;-72
2021/08/11 11:34:27;;;;;;;7.60;4.25;;;;;;;30.92;44.91;100125.66;1744545;82;20085;-73